^^
MeteoGriva-Weather Station Historical Data
Daily Summary for August 6, 2020 Units:  English    Metric   Both
Daily Weekly Monthly Yearly Custom
  High: Low: Average:
Temperature: 39.9 °F 33.1 °F 36.5 °F
Dew Point: 25.3 °F 20.5 °F 22.5 °F
Humidity: 65% 49% 57%
Wind Speed: 14.4mph 0.1mph 6.2mph
Wind Gust: 35.1mph - -
Wind- - SSW
Pressure: 30.1 in 30 in -
Precipitation: 0 in    
Historical Graphs
 
 
Tabular Data for August 6, 2020
Time Temperature Dew Point Pressure Wind Wind Speed Wind Gust Humidity Rainfall Rate (Hourly) solar
00:04 36.7 °F 25.3 °F 30 in SE 2.9 mph 10.1 mph 63.1% 0 in 0 W/m2
00:09 36.5 °F 25.2 °F 30 in SE 1.5 mph 7.6 mph 63.1% 0 in 0 W/m2
00:14 36.3 °F 25 °F 30 in SE 2.7 mph 12.5 mph 63% 0 in 0 W/m2
00:19 36.5 °F 24.8 °F 30 in NNE 2.4 mph 12.5 mph 62.1% 0 in 0 W/m2
00:24 36.5 °F 24.8 °F 30 in South 3.5 mph 12.5 mph 62% 0 in 0 W/m2
00:29 36.7 °F 25 °F 30 in ESE 4 mph 10.1 mph 62% 0 in 0 W/m2
00:34 36.7 °F 24.6 °F 30 in ESE 3.6 mph 15 mph 61.2% 0 in 0 W/m2
00:39 36.7 °F 24.4 °F 30 in SE 5.1 mph 15 mph 61% 0 in 0 W/m2
00:44 36.7 °F 24.4 °F 30 in ENE 2.4 mph 20.1 mph 61% 0 in 0 W/m2
00:49 36.9 °F 24.6 °F 30 in ESE 2.9 mph 20.1 mph 61% 0 in 0 W/m2
00:54 36.9 °F 24.6 °F 30 in ESE 3.9 mph 15 mph 61% 0 in 0 W/m2
00:59 36.9 °F 24.6 °F 30 in ESE 2 mph 15 mph 61% 0 in 0 W/m2
01:04 36.9 °F 24.6 °F 30 in SE 2.7 mph 10.1 mph 61% 0 in 0 W/m2
01:09 36.9 °F 24.4 °F 30 in SE 1.9 mph 7.6 mph 61% 0 in 0 W/m2
01:14 36.7 °F 24.4 °F 30 in SE 1.5 mph 10.1 mph 61% 0 in 0 W/m2
01:19 36.7 °F 24.8 °F 30 in ESE 2.2 mph 10.1 mph 61.8% 0 in 0 W/m2
01:24 36.7 °F 25 °F 30 in ESE 3.6 mph 12.5 mph 62% 0 in 0 W/m2
01:29 36.3 °F 24.6 °F 30 in SE 1.3 mph 7.6 mph 62% 0 in 0 W/m2
01:34 36.5 °F 24.8 °F 30 in ENE 2.7 mph 10.1 mph 62% 0 in 0 W/m2
01:39 36.5 °F 24.8 °F 30 in ESE 2.7 mph 10.1 mph 62% 0 in 0 W/m2
01:44 36.5 °F 24.4 °F 30 in ESE 2.2 mph 10.1 mph 61.1% 0 in 0 W/m2
01:49 36.7 °F 24.4 °F 30 in SE 3 mph 7.6 mph 61% 0 in 0 W/m2
01:54 36.7 °F 24.4 °F 30 in SE 3.1 mph 10.1 mph 61% 0 in 0 W/m2
01:59 36.7 °F 24.4 °F 30 in ESE 2.8 mph 10.1 mph 61% 0 in 0 W/m2
02:04 36.7 °F 24.4 °F 30 in ESE 3.7 mph 12.5 mph 61% 0 in 0 W/m2
02:09 36.7 °F 24.4 °F 30 in East 3.1 mph 7.6 mph 61% 0 in 0 W/m2
02:14 36.5 °F 24.4 °F 30 in East 1.9 mph 15 mph 61.3% 0 in 0 W/m2
02:19 36.5 °F 24.8 °F 30 in ESE 4.2 mph 12.5 mph 62% 0 in 0 W/m2
02:24 36.5 °F 24.8 °F 30 in SE 3.1 mph 10.1 mph 62% 0 in 0 W/m2
02:29 36.1 °F 24.4 °F 30 in East 2 mph 10.1 mph 62% 0 in 0 W/m2
02:34 36.1 °F 24.4 °F 30 in ENE 2.1 mph 7.6 mph 62% 0 in 0 W/m2
02:39 36.1 °F 24.4 °F 30 in SE 2.7 mph 10.1 mph 62% 0 in 0 W/m2
02:44 36.1 °F 24.4 °F 30 in SE 4.1 mph 10.1 mph 62% 0 in 0 W/m2
02:49 36.1 °F 24.4 °F 30 in ESE 4.2 mph 15 mph 62% 0 in 0 W/m2
02:54 36.1 °F 24.4 °F 30 in SE 3.2 mph 10.1 mph 62% 0 in 0 W/m2
02:59 36.1 °F 24.4 °F 30 in SE 4.1 mph 12.5 mph 62% 0 in 0 W/m2
03:04 36.1 °F 24.4 °F 30 in SE 3.1 mph 12.5 mph 62% 0 in 0 W/m2
03:09 36 °F 24.3 °F 30 in ESE 3.6 mph 12.5 mph 62.4% 0 in 0 W/m2
03:14 35.8 °F 24.4 °F 30 in SE 3 mph 10.1 mph 63% 0 in 0 W/m2
03:19 35.8 °F 24.4 °F 30 in ESE 3.2 mph 10.1 mph 63% 0 in 0 W/m2
03:24 35.8 °F 24.4 °F 30 in ESE 1.9 mph 10.1 mph 63% 0 in 0 W/m2
03:29 35.4 °F 24.1 °F 30 in SE 1 mph 10.1 mph 63% 0 in 0 W/m2
03:34 35.2 °F 24.3 °F 30 in SE 2.9 mph 10.1 mph 63.8% 0 in 0 W/m2
03:39 35.2 °F 24.3 °F 30 in SE 3.4 mph 7.6 mph 63.8% 0 in 0 W/m2
03:44 35.2 °F 24.3 °F 30 in SE 4.4 mph 15 mph 64% 0 in 0 W/m2
03:49 35.2 °F 24.3 °F 30 in SE 3.8 mph 15 mph 64% 0 in 0 W/m2
03:54 35.1 °F 24.1 °F 30 in ESE 3.4 mph 12.5 mph 64.1% 0 in 0 W/m2
03:59 35.1 °F 24.4 °F 30 in SE 4 mph 10.1 mph 64.9% 0 in 0 W/m2
04:04 35.1 °F 24.4 °F 30 in SE 2.4 mph 10.1 mph 65% 0 in 0 W/m2
04:09 34.9 °F 24.3 °F 30 in ESE 3 mph 7.6 mph 65% 0 in 0 W/m2
04:14 34.7 °F 24.1 °F 30 in SE 3.5 mph 10.1 mph 65% 0 in 0 W/m2
04:19 34.7 °F 24.1 °F 30 in SE 3.5 mph 12.5 mph 65% 0 in 0 W/m2
04:24 34.9 °F 24.1 °F 30 in ESE 3.5 mph 12.5 mph 64.6% 0 in 0 W/m2
04:29 34.9 °F 24.1 °F 30 in ESE 4.2 mph 12.5 mph 64.2% 0 in 0 W/m2
04:34 34.9 °F 24.1 °F 30 in ESE 2.3 mph 12.5 mph 64.6% 0 in 0 W/m2
04:39 34.9 °F 23.9 °F 30 in ESE 3.7 mph 12.5 mph 64% 0 in 0 W/m2
04:44 34.9 °F 24.1 °F 30 in SSE 2.1 mph 12.5 mph 64.3% 0 in 0 W/m2
04:49 34.9 °F 23.9 °F 30 in ESE 4.3 mph 12.5 mph 64.3% 0 in 0 W/m2
04:54 34.7 °F 23.7 °F 30 in SE 2.5 mph 7.6 mph 64% 0 in 0 W/m2
04:59 34.7 °F 23.7 °F 30 in SE 3 mph 10.1 mph 64% 0 in 0 W/m2
05:04 34.7 °F 23.7 °F 30 in ESE 2.5 mph 7.6 mph 64% 0 in 0 W/m2
05:09 34.5 °F 23.5 °F 30 in SE 2.2 mph 7.6 mph 64% 0 in 0 W/m2
05:14 34.5 °F 23.5 °F 30 in East 2 mph 7.6 mph 64% 0 in 0 W/m2
05:19 34.5 °F 23.2 °F 30 in ESE 3 mph 10.1 mph 63% 0 in 0 W/m2
05:24 34.5 °F 23.2 °F 30 in SE 3.4 mph 10.1 mph 63% 0 in 0 W/m2
05:29 34.5 °F 23.4 °F 30 in ESE 3.2 mph 10.1 mph 63.3% 0 in 0 W/m2
05:34 34.5 °F 23.2 °F 30 in ESE 2.9 mph 12.5 mph 63% 0 in 0 W/m2
05:39 34.5 °F 23.2 °F 30 in SE 5 mph 15 mph 63% 0 in 0 W/m2
05:44 34.5 °F 23.2 °F 30 in SE 4.8 mph 15 mph 63% 0 in 0 W/m2
05:49 34.5 °F 23.2 °F 30 in East 5.1 mph 15 mph 63% 0 in 0 W/m2
05:54 34.5 °F 23 °F 30 in NNW 3.9 mph 12.5 mph 62.3% 0 in 0 W/m2
05:59 34.5 °F 23.2 °F 30 in ESE 4.9 mph 10.1 mph 62.8% 0 in 0 W/m2
06:04 34.5 °F 23.2 °F 30 in SE 4.2 mph 12.5 mph 63% 0 in 0 W/m2
06:09 34.5 °F 22.8 °F 30 in ESE 4.7 mph 12.5 mph 62% 0 in 0 W/m2
06:14 34.3 °F 22.6 °F 30 in ESE 5.4 mph 27.5 mph 62% 0 in 0 W/m2
06:19 34.3 °F 22.6 °F 30 in SE 3.8 mph 27.5 mph 62% 0 in 0 W/m2
06:24 34.3 °F 22.5 °F 30 in SE 4.9 mph 15 mph 61.8% 0 in 0 W/m2
06:29 34.3 °F 22.5 °F 30 in ESE 5.3 mph 15 mph 61% 0 in 0 W/m2
06:34 34.3 °F 22.3 °F 30 in East 5.5 mph 15 mph 61% 0 in 0 W/m2
06:39 34.3 °F 22.3 °F 30 in SE 5.2 mph 12.5 mph 61% 0 in 0 W/m2
06:44 34.3 °F 22.3 °F 30 in SE 3.9 mph 15 mph 61% 0 in 0 W/m2
06:49 34.3 °F 22.1 °F 30 in SSE 5.5 mph 12.5 mph 60.6% 0 in 0 W/m2
06:54 34.2 °F 22.1 °F 30 in ESE 5.1 mph 17.4 mph 61% 0 in 0 W/m2
06:59 34.2 °F 22.1 °F 30 in SE 5.7 mph 15 mph 60.8% 0 in 0 W/m2
07:04 34.2 °F 21.9 °F 30 in ESE 5.2 mph 15 mph 60.4% 0 in 0 W/m2
07:09 34.2 °F 21.7 °F 30 in SE 4.9 mph 15 mph 60% 0 in 0 W/m2
07:14 34.2 °F 21.7 °F 30 in ESE 5.5 mph 15 mph 60% 0 in 0 W/m2
07:19 34.2 °F 21.7 °F 30 in ESE 5.1 mph 12.5 mph 60% 0 in 0 W/m2
07:24 34.2 °F 21.7 °F 30 in SE 5.1 mph 10.1 mph 60% 0 in 0 W/m2
07:29 34.2 °F 21.7 °F 30 in SE 5.6 mph 12.5 mph 60% 0 in 0 W/m2
07:34 34.2 °F 21.6 °F 30 in ESE 5.1 mph 17.4 mph 59.8% 0 in 0 W/m2
07:39 34.2 °F 21.4 °F 30 in SE 6.3 mph 17.4 mph 59% 0 in 0 W/m2
07:44 34.2 °F 21.4 °F 30 in SE 6.6 mph 20.1 mph 58.9% 0 in 0 W/m2
07:49 34.3 °F 21.2 °F 30 in NE 4.8 mph 20.1 mph 58.5% 0 in 0 W/m2
07:54 34.3 °F 21.2 °F 30 in ENE 4 mph 10.1 mph 58.3% 0 in 0 W/m2
07:59 34.3 °F 21.6 °F 30 in ENE 4.7 mph 20.1 mph 58.9% 0 in 0 W/m2
08:04 34.3 °F 21.4 °F 30 in ENE 5.1 mph 17.4 mph 58.6% 0 in 0 W/m2
08:09 34.3 °F 21 °F 30 in ENE 2.6 mph 12.5 mph 58% 0 in 2 W/m2
08:14 34.3 °F 21 °F 30 in NE 3.7 mph 12.5 mph 58% 0 in 6 W/m2
08:19 34.3 °F 21 °F 30.1 in ENE 2.1 mph 7.6 mph 58% 0 in 10 W/m2
08:24 34.3 °F 20.8 °F 30.1 in NE 3.9 mph 7.6 mph 57.2% 0 in 16 W/m2
08:29 34.5 °F 20.7 °F 30.1 in ENE 2.7 mph 10.1 mph 56.2% 0 in 20 W/m2
08:34 35.4 °F 21.2 °F 30.1 in NE 2.2 mph 10.1 mph 56% 0 in 24 W/m2
08:39 35.4 °F 21.2 °F 30.1 in NE 4 mph 15 mph 56% 0 in 28 W/m2
08:44 35.4 °F 20.8 °F 30.1 in NE 3.4 mph 15 mph 55.1% 0 in 32 W/m2
08:49 35.8 °F 21.2 °F 30.1 in NE 3.6 mph 12.5 mph 55% 0 in 35 W/m2
08:54 36.3 °F 21.7 °F 30.1 in ENE 5.3 mph 17.4 mph 55% 0 in 38 W/m2
08:59 36.3 °F 21.7 °F 30.1 in ENE 2.9 mph 15 mph 55% 0 in 41 W/m2
09:04 36.3 °F 21.7 °F 30.1 in NE 2.5 mph 10.1 mph 55% 0 in 44 W/m2
09:09 36.5 °F 21.7 °F 30.1 in NNE 5 mph 12.5 mph 54.4% 0 in 46 W/m2
09:14 36.9 °F 21.7 °F 30.1 in East 2.9 mph 12.5 mph 54% 0 in 49 W/m2
09:19 37 °F 21.7 °F 30.1 in ENE 3.2 mph 12.5 mph 53.6% 0 in 52 W/m2
09:24 37 °F 21.7 °F 30.1 in NNE 3.9 mph 10.1 mph 53.4% 0 in 53 W/m2
09:29 37 °F 21.9 °F 30.1 in NNW 4.8 mph 12.5 mph 54% 0 in 56 W/m2
09:34 37.2 °F 21.7 °F 30.1 in NNE 4.2 mph 15 mph 53.1% 0 in 60 W/m2
09:39 37.4 °F 21.9 °F 30.1 in ENE 3.6 mph 12.5 mph 53% 0 in 78 W/m2
09:44 37.4 °F 21.9 °F 30.1 in East 6.2 mph 20.1 mph 53% 0 in 146 W/m2
09:49 37.4 °F 21.6 °F 30.1 in SE 4 mph 10.1 mph 52.3% 0 in 160 W/m2
09:54 37.6 °F 21.6 °F 30.1 in East 4.8 mph 17.4 mph 52% 0 in 187 W/m2
09:59 37.8 °F 21.4 °F 30.1 in ENE 2.6 mph 15 mph 51.3% 0 in 203 W/m2
10:04 37.8 °F 21.2 °F 30.1 in ENE 4.8 mph 12.5 mph 51% 0 in 220 W/m2
10:09 37.8 °F 21.2 °F 30.1 in East 2.5 mph 12.5 mph 51% 0 in 230 W/m2
10:14 38.5 °F 21.7 °F 30.1 in ESE 5 mph 12.5 mph 51% 0 in 244 W/m2
10:19 38.3 °F 21.7 °F 30.1 in East 3.9 mph 12.5 mph 51% 0 in 252 W/m2
10:24 38.3 °F 21.7 °F 30.1 in ESE 3.1 mph 10.1 mph 51% 0 in 259 W/m2
10:29 38.5 °F 21.6 °F 30.1 in NE 4.5 mph 17.4 mph 50.3% 0 in 265 W/m2
10:34 38.7 °F 21.9 °F 30.1 in NNW 11.7 mph 22.6 mph 50.7% 0 in 77 W/m2
10:39 38.7 °F 21.6 °F 30.1 in NNW 10.3 mph 22.6 mph 50% 0 in 78 W/m2
10:44 38.7 °F 21.6 °F 30.1 in NNW 11.1 mph 22.6 mph 50% 0 in 78 W/m2
10:49 38.7 °F 21.6 °F 30.1 in NNW 13.5 mph 27.5 mph 50% 0 in 79 W/m2
10:54 38.3 °F 21.2 °F 30.1 in NNW 14.4 mph 27.5 mph 50% 0 in 80 W/m2
10:59 38.3 °F 21.6 °F 30.1 in NNW 11.2 mph 35.1 mph 50.6% 0 in 81 W/m2
11:04 38.3 °F 21.7 °F 30.1 in NNW 10.7 mph 27.5 mph 51% 0 in 82 W/m2
11:09 38.3 °F 21.7 °F 30.1 in North 13 mph 32.7 mph 51% 0 in 83 W/m2
11:14 38.5 °F 21.9 °F 30.1 in NNW 10.4 mph 22.6 mph 51% 0 in 85 W/m2
11:19 38.5 °F 21.7 °F 30.1 in NNW 11.1 mph 22.6 mph 50.7% 0 in 87 W/m2
11:24 38.5 °F 21.4 °F 30.1 in North 12.6 mph 22.6 mph 50% 0 in 90 W/m2
11:29 38.5 °F 21.6 °F 30.1 in NNW 10.3 mph 22.6 mph 50.3% 0 in 92 W/m2
11:34 38.5 °F 21.7 °F 30.1 in North 14.1 mph 27.5 mph 50.5% 0 in 96 W/m2
11:39 38.5 °F 21.9 °F 30.1 in NW 12.3 mph 25.1 mph 51% 0 in 99 W/m2
11:44 38.5 °F 21.9 °F 30.1 in NNW 11.1 mph 27.5 mph 51.1% 0 in 100 W/m2
11:49 38.3 °F 22.5 °F 30.1 in NNW 11.4 mph 27.5 mph 52% 0 in 92 W/m2
11:54 38.1 °F 22.1 °F 30.1 in WNW 10.4 mph 27.5 mph 51.8% 0 in 80 W/m2
11:59 38.1 °F 22.1 °F 30.1 in NNE 10.9 mph 22.6 mph 51.9% 0 in 79 W/m2
12:04 38.1 °F 21.7 °F 30.1 in North 8.7 mph 20.1 mph 51.2% 0 in 78 W/m2
12:09 38.3 °F 21.7 °F 30.1 in NNW 10.8 mph 25.1 mph 51% 0 in 82 W/m2
12:14 38.7 °F 21.7 °F 30.1 in NNW 12 mph 22.6 mph 50.2% 0 in 94 W/m2
12:19 38.8 °F 21.7 °F 30.1 in NNW 10.4 mph 22.6 mph 50% 0 in 131 W/m2
12:24 38.8 °F 21.7 °F 30.1 in NNW 12.4 mph 30 mph 50% 0 in 139 W/m2
12:29 38.8 °F 21.7 °F 30.1 in NNW 11.4 mph 20.1 mph 50% 0 in 147 W/m2
12:34 39 °F 21.9 °F 30.1 in North 11 mph 20.1 mph 50% 0 in 154 W/m2
12:39 38.8 °F 21.7 °F 30.1 in North 8.4 mph 25.1 mph 50% 0 in 162 W/m2
12:44 39 °F 22.1 °F 30.1 in NNW 10.5 mph 17.4 mph 50.3% 0 in 172 W/m2
12:49 39 °F 21.9 °F 30.1 in NNW 9.5 mph 20.1 mph 50.1% 0 in 183 W/m2
12:54 39.9 °F 22.8 °F 30.1 in NNW 11.1 mph 30 mph 50% 0 in 193 W/m2
12:59 39.7 °F 23.2 °F 30.1 in North 9.1 mph 27.5 mph 50.9% 0 in 203 W/m2
13:04 39.7 °F 23 °F 30.1 in North 7.7 mph 15 mph 50.6% 0 in 213 W/m2
13:09 39.6 °F 22.5 °F 30 in North 10.3 mph 20.1 mph 50% 0 in 221 W/m2
13:14 39.4 °F 22.1 °F 30 in NNW 9 mph 25.1 mph 49.7% 0 in 232 W/m2
13:19 39.4 °F 22.1 °F 30 in North 11.1 mph 22.6 mph 49.6% 0 in 238 W/m2
13:24 39.4 °F 22.3 °F 30 in North 9.1 mph 22.6 mph 50% 0 in 248 W/m2
13:29 39.4 °F 22.3 °F 30 in NNW 8.3 mph 20.1 mph 50% 0 in 254 W/m2
13:34 39.2 °F 22.1 °F 30 in North 12.3 mph 27.5 mph 50% 0 in 260 W/m2
13:39 39.2 °F 22.1 °F 30 in North 9.1 mph 22.6 mph 50% 0 in 265 W/m2
13:44 39.4 °F 22.3 °F 30 in North 10.6 mph 20.1 mph 50% 0 in 269 W/m2
13:49 39.4 °F 22.3 °F 30 in North 11.6 mph 25.1 mph 50% 0 in 272 W/m2
13:54 39.2 °F 22.1 °F 30 in NNW 11.5 mph 20.1 mph 49.9% 0 in 274 W/m2
13:59 39.2 °F 21.7 °F 30 in NNW 8.8 mph 20.1 mph 49.1% 0 in 275 W/m2
14:04 39.2 °F 21.6 °F 30 in NNW 11.7 mph 32.7 mph 49% 0 in 276 W/m2
14:09 39.4 °F 22.1 °F 30 in North 12.2 mph 22.6 mph 49.8% 0 in 274 W/m2
14:14 39.4 °F 22.3 °F 30 in North 10.3 mph 30 mph 50% 0 in 273 W/m2
14:19 39.4 °F 22.3 °F 30 in NNW 9.3 mph 17.4 mph 50% 0 in 273 W/m2
14:24 39.4 °F 22.5 °F 30 in NNW 8.9 mph 20.1 mph 50.4% 0 in 272 W/m2
14:29 39.4 °F 22.8 °F 30 in North 9.8 mph 20.1 mph 51% 0 in 272 W/m2
14:34 39.2 °F 22.6 °F 30 in NW 10.6 mph 20.1 mph 51% 0 in 268 W/m2
14:39 39.2 °F 22.6 °F 30 in North 9.7 mph 20.1 mph 51% 0 in 257 W/m2
14:44 39.2 °F 22.6 °F 30 in NNW 10.7 mph 22.6 mph 51% 0 in 251 W/m2
14:49 39.2 °F 22.6 °F 30 in North 11.3 mph 25.1 mph 51% 0 in 256 W/m2
14:54 39.2 °F 22.6 °F 30.1 in North 8 mph 22.6 mph 51% 0 in 253 W/m2
14:59 39.2 °F 23 °F 30 in North 11.7 mph 22.6 mph 51.9% 0 in 250 W/m2
15:04 39.2 °F 23 °F 30 in North 9.9 mph 22.6 mph 52% 0 in 246 W/m2
15:09 39 °F 22.8 °F 30 in NNW 10.4 mph 22.6 mph 52% 0 in 241 W/m2
15:14 38.8 °F 22.5 °F 30 in North 9.7 mph 25.1 mph 51.4% 0 in 236 W/m2
15:19 38.7 °F 22.6 °F 30 in North 9.1 mph 20.1 mph 52% 0 in 231 W/m2
15:24 38.7 °F 22.6 °F 30 in NNW 10.8 mph 22.6 mph 52% 0 in 225 W/m2
15:29 38.7 °F 22.6 °F 30 in NNW 9.6 mph 27.5 mph 52% 0 in 219 W/m2
15:34 38.7 °F 22.6 °F 30 in NNW 13.1 mph 22.6 mph 52% 0 in 211 W/m2
15:39 38.5 °F 22.5 °F 30 in NNW 11.7 mph 22.6 mph 52% 0 in 206 W/m2
15:44 38.5 °F 22.3 °F 30.1 in North 12.2 mph 22.6 mph 51.8% 0 in 199 W/m2
15:49 38.5 °F 21.9 °F 30.1 in NNW 8.8 mph 22.6 mph 51.1% 0 in 185 W/m2
15:54 38.3 °F 22.3 °F 30 in NW 8.8 mph 20.1 mph 52% 0 in 102 W/m2
15:59 38.1 °F 22.1 °F 30 in North 13.1 mph 25.1 mph 52% 0 in 39 W/m2
16:04 38.1 °F 22.1 °F 30 in NW 10.6 mph 25.1 mph 52% 0 in 37 W/m2
16:09 38.1 °F 22.1 °F 30.1 in NNW 9.8 mph 20.1 mph 52% 0 in 35 W/m2
16:14 37.9 °F 21.9 °F 30.1 in NNW 9.3 mph 20.1 mph 52% 0 in 33 W/m2
16:19 37.9 °F 21.9 °F 30.1 in NNW 8.9 mph 20.1 mph 52% 0 in 31 W/m2
16:24 37.9 °F 21.9 °F 30.1 in NNW 10.1 mph 25.1 mph 52% 0 in 29 W/m2
16:29 37.9 °F 21.9 °F 30.1 in NNW 12.6 mph 25.1 mph 52% 0 in 27 W/m2
16:34 37.9 °F 21.9 °F 30.1 in NNW 9.8 mph 20.1 mph 52% 0 in 24 W/m2
16:39 37.9 °F 21.9 °F 30.1 in North 9.2 mph 20.1 mph 52.1% 0 in 22 W/m2
16:44 37.8 °F 22.1 °F 30.1 in NNW 7.7 mph 20.1 mph 53% 0 in 20 W/m2
16:49 37.8 °F 22.1 °F 30.1 in NNW 8.5 mph 20.1 mph 53% 0 in 17 W/m2
16:54 37.8 °F 22.1 °F 30.1 in NNW 9.2 mph 27.5 mph 53% 0 in 13 W/m2
16:59 37.6 °F 22.1 °F 30.1 in NNW 11.1 mph 27.5 mph 53.4% 0 in 10 W/m2
17:04 37.6 °F 22.5 °F 30.1 in NNW 10.3 mph 22.6 mph 54% 0 in 8 W/m2
17:09 37.4 °F 22.3 °F 30.1 in NNW 10.1 mph 20.1 mph 54% 0 in 5 W/m2
17:14 37.4 °F 22.3 °F 30.1 in North 8.6 mph 20.1 mph 54% 0 in 3 W/m2
17:19 37 °F 21.9 °F 30.1 in NNW 9.3 mph 20.1 mph 54% 0 in 0 W/m2
17:24 37 °F 22.3 °F 30.1 in NNW 10.3 mph 20.1 mph 54.8% 0 in 0 W/m2
17:29 37 °F 22.6 °F 30.1 in NNW 8.6 mph 20.1 mph 55.2% 0 in 0 W/m2
17:34 37 °F 22.8 °F 30.1 in NNW 8.9 mph 22.6 mph 56% 0 in 0 W/m2
17:39 36.7 °F 22.5 °F 30.1 in NNW 8.1 mph 22.6 mph 56% 0 in 0 W/m2
17:44 36.7 °F 22.5 °F 30.1 in NNW 9.6 mph 25.1 mph 56% 0 in 0 W/m2
17:49 36.7 °F 22.6 °F 30.1 in NNW 8.8 mph 25.1 mph 56.2% 0 in 0 W/m2
17:54 36.7 °F 22.6 °F 30.1 in NNW 10.8 mph 22.6 mph 56.6% 0 in 0 W/m2
17:59 36.5 °F 22.3 °F 30.1 in NNW 9.1 mph 20.1 mph 56% 0 in 0 W/m2
18:04 36.5 °F 22.3 °F 30.1 in NNW 9.4 mph 20.1 mph 56% 0 in 0 W/m2
18:09 36.5 °F 22.1 °F 30.1 in NNE 7.1 mph 22.6 mph 55.5% 0 in 0 W/m2
18:14 36.5 °F 21.9 °F 30.1 in NNW 8.1 mph 22.6 mph 55% 0 in 0 W/m2
18:19 36.7 °F 22.1 °F 30.1 in NNW 13.4 mph 27.5 mph 55% 0 in 0 W/m2
18:24 36.7 °F 22.1 °F 30.1 in NNW 10 mph 20.1 mph 55.2% 0 in 0 W/m2
18:29 36.7 °F 22.3 °F 30.1 in North 7.3 mph 15 mph 55.6% 0 in 0 W/m2
18:34 36.7 °F 22.5 °F 30.1 in North 6.6 mph 15 mph 56% 0 in 0 W/m2
18:39 36.3 °F 22.3 °F 30.1 in NNW 7.8 mph 15 mph 56% 0 in 0 W/m2
18:44 36.3 °F 22.1 °F 30.1 in North 9.2 mph 27.5 mph 56% 0 in 0 W/m2
18:49 36.5 °F 21.9 °F 30.1 in NNW 10.3 mph 27.5 mph 55.1% 0 in 0 W/m2
18:54 36.5 °F 22.1 °F 30.1 in North 9.4 mph 20.1 mph 55.6% 0 in 0 W/m2
18:59 36.5 °F 22.3 °F 30.1 in NNW 9.4 mph 17.4 mph 56% 0 in 0 W/m2
19:04 36.5 °F 22.3 °F 30.1 in North 10.1 mph 22.6 mph 56% 0 in 0 W/m2
19:09 36.5 °F 22.3 °F 30.1 in NNW 7 mph 17.4 mph 55.9% 0 in 0 W/m2
19:14 36.5 °F 22.3 °F 30.1 in North 4.7 mph 12.5 mph 56% 0 in 0 W/m2
19:19 36.5 °F 22.3 °F 30.1 in NNW 6.5 mph 22.6 mph 55.9% 0 in 0 W/m2
19:24 36.5 °F 21.9 °F 30.1 in NNW 8.3 mph 20.1 mph 55% 0 in 0 W/m2
19:29 36.5 °F 22.1 °F 30.1 in NNW 5.7 mph 17.4 mph 55.8% 0 in 0 W/m2
19:34 36.3 °F 22.1 °F 30.1 in NNW 8.3 mph 17.4 mph 56% 0 in 0 W/m2
19:39 36.3 °F 22.1 °F 30.1 in North 7.8 mph 15 mph 56% 0 in 0 W/m2
19:44 36.1 °F 21.9 °F 30.1 in NNW 7.1 mph 15 mph 56% 0 in 0 W/m2
19:49 36.1 °F 22.1 °F 30.1 in North 4.8 mph 15 mph 56.2% 0 in 0 W/m2
19:54 36.1 °F 22.5 °F 30.1 in NNW 4.2 mph 17.4 mph 57% 0 in 0 W/m2
19:59 35.6 °F 21.9 °F 30.1 in North 3 mph 10.1 mph 57% 0 in 0 W/m2
20:04 35.6 °F 21.9 °F 30.1 in North 1.9 mph 7.6 mph 57% 0 in 0 W/m2
20:09 35.6 °F 22.1 °F 30.1 in NNW 0.9 mph 7.6 mph 57.4% 0 in 0 W/m2
20:14 35.6 °F 22.5 °F 30.1 in NW 0.1 mph 4.9 mph 58.6% 0 in 0 W/m2
20:19 34.9 °F 21.9 °F 30.1 in NNE 1.4 mph 10.1 mph 59% 0 in 0 W/m2
20:24 34.9 °F 21.7 °F 30.1 in NNE 3.6 mph 12.5 mph 58.4% 0 in 0 W/m2
20:29 34.9 °F 22.3 °F 30.1 in North 3.8 mph 10.1 mph 59.6% 0 in 0 W/m2
20:34 34.9 °F 22.5 °F 30.1 in North 3.2 mph 10.1 mph 60.1% 0 in 0 W/m2
20:39 34.9 °F 22.1 °F 30.1 in North 4.2 mph 10.1 mph 59.2% 0 in 0 W/m2
20:44 34.9 °F 21.9 °F 30.1 in NNW 6 mph 15 mph 59% 0 in 0 W/m2
20:49 34.9 °F 21.9 °F 30.1 in North 6.2 mph 15 mph 59% 0 in 0 W/m2
20:54 34.9 °F 21.7 °F 30.1 in NNW 10.3 mph 27.5 mph 58.2% 0 in 0 W/m2
20:59 35.2 °F 21.9 °F 30.1 in North 5.5 mph 27.5 mph 58% 0 in 0 W/m2
21:04 35.2 °F 21.9 °F 30.1 in North 5.7 mph 15 mph 58% 0 in 0 W/m2
21:09 35.2 °F 21.9 °F 30.1 in North 6.6 mph 15 mph 57.9% 0 in 0 W/m2
21:14 35.2 °F 21.9 °F 30.1 in North 3 mph 12.5 mph 58% 0 in 0 W/m2
21:19 35.2 °F 21.7 °F 30.1 in NNE 5.6 mph 12.5 mph 57.7% 0 in 0 W/m2
21:24 35.2 °F 21.7 °F 30.1 in North 3.1 mph 10.1 mph 57.4% 0 in 0 W/m2
21:29 35.1 °F 21.7 °F 30.1 in NW 6.2 mph 17.4 mph 58.2% 0 in 0 W/m2
21:34 35.1 °F 22.1 °F 30.1 in NNW 7.3 mph 17.4 mph 59% 0 in 0 W/m2
21:39 34.9 °F 21.9 °F 30.1 in NW 4 mph 12.5 mph 59% 0 in 0 W/m2
21:44 34.9 °F 21.9 °F 30.1 in NNW 5.3 mph 15 mph 59% 0 in 0 W/m2
21:49 34.9 °F 21.9 °F 30.1 in North 6.1 mph 15 mph 58.9% 0 in 0 W/m2
21:54 34.9 °F 21.6 °F 30.1 in NNW 8.4 mph 17.4 mph 58% 0 in 0 W/m2
21:59 35.2 °F 21.6 °F 30.1 in NNW 6.7 mph 22.6 mph 57% 0 in 0 W/m2
22:04 35.2 °F 21.7 °F 30.1 in NNW 4.8 mph 12.5 mph 57.2% 0 in 0 W/m2
22:09 35.2 °F 21.7 °F 30.1 in NNW 5.5 mph 12.5 mph 57.5% 0 in 0 W/m2
22:14 35.2 °F 21.6 °F 30.1 in North 7.9 mph 20.1 mph 57.1% 0 in 0 W/m2
22:19 35.1 °F 21.4 °F 30.1 in North 4.8 mph 12.5 mph 57% 0 in 0 W/m2
22:24 35.1 °F 21.4 °F 30.1 in NNW 7 mph 17.4 mph 57% 0 in 0 W/m2
22:29 35.1 °F 21.2 °F 30.1 in NNW 4.9 mph 12.5 mph 56.7% 0 in 0 W/m2
22:34 35.1 °F 21 °F 30.1 in North 4.8 mph 15 mph 56% 0 in 0 W/m2
22:39 35.2 °F 21.2 °F 30.1 in North 5.6 mph 15 mph 56% 0 in 0 W/m2
22:44 35.2 °F 21.2 °F 30.1 in NNW 3.3 mph 10.1 mph 56.1% 0 in 0 W/m2
22:49 35.2 °F 21.6 °F 30.1 in North 2.1 mph 12.5 mph 56.8% 0 in 0 W/m2
22:54 35.2 °F 21.2 °F 30.1 in North 3.7 mph 12.5 mph 56.2% 0 in 0 W/m2
22:59 34.9 °F 21 °F 30.1 in NNE 3.1 mph 10.1 mph 56.3% 0 in 0 W/m2
23:04 34.9 °F 21 °F 30.1 in NE 0.6 mph 7.6 mph 56.4% 0 in 0 W/m2
23:09 34.7 °F 21.7 °F 30.1 in NNE 1.3 mph 7.6 mph 58.7% 0 in 0 W/m2
23:14 34.5 °F 21.9 °F 30.1 in North 3.7 mph 7.6 mph 59.3% 0 in 0 W/m2
23:19 33.6 °F 21.6 °F 30.1 in NW 0.5 mph 7.6 mph 61% 0 in 0 W/m2
23:24 33.1 °F 21.6 °F 30.1 in North 2.4 mph 10.1 mph 62% 0 in 0 W/m2
23:29 33.1 °F 21.2 °F 30.1 in NNW 1.3 mph 4.9 mph 61.2% 0 in 0 W/m2
23:34 33.1 °F 20.7 °F 30.1 in North 1.9 mph 7.6 mph 60.1% 0 in 0 W/m2
23:39 34.2 °F 20.8 °F 30.1 in NNW 2.1 mph 15 mph 58% 0 in 0 W/m2
23:44 34.5 °F 20.8 °F 30.1 in North 2.4 mph 7.6 mph 57% 0 in 0 W/m2
23:49 34.5 °F 20.8 °F 30.1 in NNE 0.7 mph 4.9 mph 57% 0 in 0 W/m2
23:54 34.5 °F 20.8 °F 30.1 in North 0.3 mph 4.9 mph 57% 0 in 0 W/m2
23:59 34.2 °F 20.5 °F 30.1 in NNW 1.8 mph 7.6 mph 57% 0 in 0 W/m2
Juneau County Weather
Compliments of Weather Underground - 2 mb